Time;durP1;ratioP1;P1;durP2;ratioP2;P2;SDS_P1;SDS_P2;PMS_P1;PMS_P2;Temp;Humidity;BMP_temperature;BMP_pressure;BME280_temperature;BME280_humidity;BME280_pressure;Samples;Min_cycle;Max_cycle;Signal;HPM_P1;HPM_P2
2021/01/15 00:01:25;;;;;;;33.73;18.20;;;;;;;5.38;44.52;99508.05;1769575;81;21166;-76
2021/01/15 00:03:54;;;;;;;33.95;20.48;;;;;;;5.39;44.55;99511.05;1801656;79;21185;-80
2021/01/15 00:06:24;;;;;;;33.35;19.12;;;;;;;5.42;44.54;99519.22;1801555;79;21186;-78
2021/01/15 00:08:53;;;;;;;41.53;23.67;;;;;;;5.46;44.45;99512.14;1770147;81;21189;-77
2021/01/15 00:11:24;;;;;;;49.18;26.82;;;;;;;5.50;44.43;99515.34;1801943;79;21078;-77
2021/01/15 00:13:53;;;;;;;61.53;31.42;;;;;;;5.31;44.83;99509.16;1801802;79;21373;-77
2021/01/15 00:16:28;;;;;;;47.58;24.12;;;;;;;5.54;44.39;99514.03;1770174;81;21239;-77
2021/01/15 00:18:58;;;;;;;42.17;22.37;;;;;;;5.56;44.30;99504.94;1801703;79;21201;-76
2021/01/15 00:21:29;;;;;;;40.90;19.25;;;;;;;5.56;44.28;99506.77;1801706;79;21499;-78
2021/01/15 00:24:02;;;;;;;31.45;18.55;;;;;;;5.56;44.11;99512.08;1768480;81;21182;-79
2021/01/15 00:26:31;;;;;;;28.38;16.23;;;;;;;5.55;44.03;99513.90;1801824;79;22212;-77
2021/01/15 00:28:59;;;;;;;28.17;17.12;;;;;;;5.53;43.96;99512.36;1768349;81;21141;-77
2021/01/15 00:31:38;;;;;;;28.73;16.60;;;;;;;5.52;43.94;99516.84;1801617;79;21184;-79
2021/01/15 00:34:08;;;;;;;32.00;18.95;;;;;;;5.50;43.83;99508.20;1768640;81;21066;-77
2021/01/15 00:36:37;;;;;;;33.00;19.48;;;;;;;5.45;43.80;99507.81;1781797;79;21172;-77
2021/01/15 00:39:06;;;;;;;40.52;23.40;;;;;;;5.43;43.71;99514.25;1768406;79;21805;-80
2021/01/15 00:41:38;;;;;;;41.28;22.40;;;;;;;5.35;43.50;99511.00;1797555;79;21174;-79
2021/01/15 00:44:07;;;;;;;35.70;22.70;;;;;;;5.28;43.56;99514.75;1779758;79;21050;-79
2021/01/15 00:46:35;;;;;;;44.13;23.22;;;;;;;5.25;43.68;99519.02;1788605;78;21306;-78
2021/01/15 00:49:09;;;;;;;33.53;21.73;;;;;;;5.25;43.72;99511.55;1738036;80;21615;-79
2021/01/15 00:51:39;;;;;;;32.78;20.50;;;;;;;5.24;43.71;99518.67;1765987;81;21647;-78
2021/01/15 00:54:07;;;;;;;43.68;24.15;;;;;;;5.22;43.73;99520.66;1771947;80;21181;-77
2021/01/15 00:56:35;;;;;;;43.02;23.73;;;;;;;5.04;43.79;99516.61;1727658;81;21153;-76
2021/01/15 00:59:04;;;;;;;44.40;25.77;;;;;;;4.67;44.58;99520.55;1757965;80;21078;-77
2021/01/15 01:01:37;;;;;;;46.08;25.65;;;;;;;4.57;44.78;99517.92;1762813;78;21196;-79
2021/01/15 01:04:06;;;;;;;48.33;28.38;;;;;;;4.53;44.93;99519.17;1773709;80;21200;-78
2021/01/15 01:06:33;;;;;;;53.20;29.50;;;;;;;4.53;44.99;99520.50;1773092;80;21746;-77
2021/01/15 01:09:02;;;;;;;50.60;28.83;;;;;;;4.49;44.94;99521.77;1778806;78;21173;-78
2021/01/15 01:11:31;;;;;;;53.48;28.40;;;;;;;4.38;44.88;99516.63;1814895;78;21182;-79
2021/01/15 01:14:00;;;;;;;66.82;32.93;;;;;;;4.21;45.06;99517.34;1773988;80;21162;-80
2021/01/15 01:16:29;;;;;;;55.35;28.12;;;;;;;4.08;45.34;99519.78;1772827;80;21364;-77
2021/01/15 01:18:58;;;;;;;44.83;22.87;;;;;;;4.00;45.53;99524.96;1748414;80;21180;-78
2021/01/15 01:21:27;;;;;;;44.50;24.18;;;;;;;3.93;45.61;99523.83;1745183;82;21134;-77
2021/01/15 01:23:55;;;;;;;31.27;17.87;;;;;;;3.83;45.85;99520.34;1754564;80;21084;-78
2021/01/15 01:26:22;;;;;;;38.15;20.80;;;;;;;3.79;45.99;99523.75;1745722;81;21562;-79
2021/01/15 01:28:50;;;;;;;32.98;17.55;;;;;;;3.73;46.11;99520.83;1765555;80;21612;-77
2021/01/15 01:31:18;;;;;;;27.70;15.93;;;;;;;3.72;46.25;99519.13;1752230;80;21209;-79
2021/01/15 01:33:46;;;;;;;25.55;14.98;;;;;;;3.71;46.28;99516.14;1745709;82;21098;-78
2021/01/15 01:36:15;;;;;;;23.55;13.18;;;;;;;3.70;46.44;99514.47;1754599;80;21061;-77
2021/01/15 01:38:43;;;;;;;24.75;13.85;;;;;;;3.74;46.45;99519.36;1751739;80;21622;-78
2021/01/15 01:41:11;;;;;;;22.95;14.35;;;;;;;3.70;46.44;99518.44;1754255;80;21369;-77
2021/01/15 01:43:38;;;;;;;22.27;12.90;;;;;;;3.60;46.61;99518.44;1744591;82;21183;-77
2021/01/15 01:46:07;;;;;;;19.87;12.68;;;;;;;3.55;46.75;99515.36;1752460;80;21231;-78
2021/01/15 01:48:35;;;;;;;23.67;14.95;;;;;;;3.52;46.67;99516.45;1751149;80;21183;-78
2021/01/15 01:51:04;;;;;;;22.82;13.15;;;;;;;3.46;46.83;99513.53;1734562;80;21222;-79
2021/01/15 01:53:32;;;;;;;25.35;14.70;;;;;;;3.46;46.92;99511.72;1751915;80;21381;-77
2021/01/15 01:56:03;;;;;;;22.22;14.00;;;;;;;3.50;46.97;99513.61;1761672;80;21174;-79
2021/01/15 01:58:33;;;;;;;21.85;14.35;;;;;;;3.51;46.88;99515.28;1745305;82;21167;-77
2021/01/15 02:01:06;;;;;;;26.48;15.65;;;;;;;3.54;46.83;99514.98;1746659;80;21692;-76
2021/01/15 02:03:34;;;;;;;23.57;14.90;;;;;;;3.55;46.85;99509.58;1744807;81;21185;-80
2021/01/15 02:06:04;;;;;;;24.70;14.10;;;;;;;3.59;46.81;99506.17;1744683;82;21210;-77
2021/01/15 02:08:33;;;;;;;28.92;15.72;;;;;;;3.59;46.71;99507.50;1768208;80;21521;-77
2021/01/15 02:11:22;;;;;;;25.57;15.93;;;;;;;3.55;46.83;99506.09;1766306;80;21213;-77
2021/01/15 02:14:20;;;;;;;24.12;13.15;;;;;;;3.58;47.00;99507.61;1745394;82;21189;-77
2021/01/15 02:16:52;;;;;;;31.12;16.82;;;;;;;3.66;46.92;99509.09;1745845;82;21208;-78
2021/01/15 02:19:38;;;;;;;29.27;16.55;;;;;;;3.70;46.89;99512.66;1745031;80;21316;-78
2021/01/15 02:22:44;;;;;;;32.48;17.70;;;;;;;3.76;46.83;99508.13;1770823;80;21205;-78
2021/01/15 02:25:29;;;;;;;33.58;18.55;;;;;;;3.83;46.80;99507.09;1745404;82;21565;-77
2021/01/15 02:28:53;;;;;;;40.05;20.48;;;;;;;3.90;46.62;99510.85;1749270;80;21638;-77
2021/01/15 02:32:07;;;;;;;37.50;20.25;;;;;;;3.85;46.61;99515.73;1776440;80;21173;-78
2021/01/15 02:34:46;;;;;;;30.85;18.98;;;;;;;3.84;46.82;99519.36;1747601;80;21371;-77
2021/01/15 02:37:41;;;;;;;30.60;17.62;;;;;;;3.81;46.82;99517.84;1767172;80;21157;-79
2021/01/15 02:40:22;;;;;;;37.20;19.67;;;;;;;3.78;47.08;99517.28;1744831;81;21229;-75
2021/01/15 02:42:51;;;;;;;41.85;21.93;;;;;;;3.86;47.16;99520.08;1743874;82;21201;-77
2021/01/15 02:45:19;;;;;;;34.40;19.40;;;;;;;3.96;47.08;99516.10;1743868;82;21180;-76
2021/01/15 02:47:52;;;;;;;40.25;19.92;;;;;;;4.06;46.93;99523.56;1718952;82;21446;-80
2021/01/15 02:50:22;;;;;;;34.20;19.10;;;;;;;4.30;46.32;99519.15;1743742;82;21198;-78
2021/01/15 02:52:50;;;;;;;46.88;24.15;;;;;;;4.09;46.44;99524.62;1752231;80;21197;-74
2021/01/15 02:55:18;;;;;;;39.50;20.40;;;;;;;4.17;46.48;99523.89;1745342;80;21224;-76
2021/01/15 02:57:45;;;;;;;41.55;23.10;;;;;;;4.27;46.17;99523.39;1745609;82;21132;-76
2021/01/15 03:00:19;;;;;;;41.83;24.23;;;;;;;4.27;46.35;99522.06;1747350;80;21399;-78
2021/01/15 03:03:27;;;;;;;43.65;24.35;;;;;;;4.12;46.82;99519.50;1745791;80;21195;-78
2021/01/15 03:06:15;;;;;;;47.70;24.18;;;;;;;4.06;47.05;99525.72;1734192;80;21135;-78
2021/01/15 03:08:44;;;;;;;47.50;25.88;;;;;;;4.08;47.14;99513.16;1726732;81;21220;-79
2021/01/15 03:11:12;;;;;;;53.00;27.55;;;;;;;4.15;47.05;99514.77;1720663;82;21124;-77
2021/01/15 03:13:39;;;;;;;46.45;24.87;;;;;;;4.13;47.09;99513.22;1745865;82;22226;-77
2021/01/15 03:16:07;;;;;;;69.37;32.17;;;;;;;4.44;46.86;99513.89;1747655;80;21544;-79
2021/01/15 03:18:34;;;;;;;71.17;34.33;;;;;;;4.62;46.50;99511.35;1703924;82;21169;-80
2021/01/15 03:21:03;;;;;;;77.05;37.88;;;;;;;4.72;46.31;99513.48;1732752;81;21185;-79
2021/01/15 03:23:36;;;;;;;83.58;42.78;;;;;;;4.81;46.20;99517.45;1768392;80;21157;-78
2021/01/15 03:26:04;;;;;;;69.50;37.28;;;;;;;4.90;46.04;99502.45;1757662;80;22751;-77
2021/01/15 03:28:32;;;;;;;66.67;35.05;;;;;;;4.96;45.98;99511.68;1747462;80;21663;-81
2021/01/15 03:31:00;;;;;;;54.63;28.50;;;;;;;5.00;45.88;99503.28;1747832;80;21126;-78
2021/01/15 03:33:28;;;;;;;71.92;36.03;;;;;;;5.03;45.64;99498.98;1754159;80;21137;-78
2021/01/15 03:35:56;;;;;;;78.07;36.98;;;;;;;5.00;45.68;99501.95;1765540;80;21182;-79
2021/01/15 03:38:24;;;;;;;84.10;41.98;;;;;;;4.99;45.61;99502.91;1745953;82;21368;-77
2021/01/15 03:40:55;;;;;;;83.70;41.40;;;;;;;4.99;45.66;99502.91;1746809;80;21478;-78
2021/01/15 03:43:24;;;;;;;94.95;46.33;;;;;;;5.03;45.63;99504.30;1748220;80;21617;-78
2021/01/15 03:45:52;;;;;;;129.05;63.40;;;;;;;4.79;46.04;99497.34;1762532;80;21686;-80
2021/01/15 03:48:21;;;;;;;129.47;69.35;;;;;;;5.02;45.61;99503.13;1745825;82;21658;-79
2021/01/15 03:50:50;;;;;;;215.07;108.15;;;;;;;5.06;45.61;99507.16;1745951;82;21333;-79
2021/01/15 03:53:18;;;;;;;290.70;141.22;;;;;;;5.09;45.42;99509.04;1761353;80;21193;-78
2021/01/15 03:55:48;;;;;;;207.98;99.42;;;;;;;5.06;45.37;99512.47;1761264;80;21158;-76
2021/01/15 03:58:16;;;;;;;237.12;109.65;;;;;;;5.05;45.34;99503.67;1746131;80;21166;-80
2021/01/15 04:00:43;;;;;;;154.65;75.28;;;;;;;5.05;45.38;99505.00;1747593;80;21631;-79
2021/01/15 04:03:11;;;;;;;134.32;67.32;;;;;;;5.08;45.38;99503.36;1759657;80;22227;-78
2021/01/15 04:05:39;;;;;;;119.65;62.53;;;;;;;5.12;45.29;99509.22;1766603;80;21208;-79
2021/01/15 04:08:09;;;;;;;122.58;66.35;;;;;;;5.15;45.10;99507.61;1758371;80;21133;-78
2021/01/15 04:10:37;;;;;;;73.83;41.15;;;;;;;5.18;45.00;99503.81;1741005;81;21169;-77
2021/01/15 04:13:05;;;;;;;70.40;40.52;;;;;;;5.17;44.83;99511.44;1759137;80;21192;-78
2021/01/15 04:15:33;;;;;;;58.65;33.10;;;;;;;5.14;44.93;99505.95;1769182;81;21350;-76
2021/01/15 04:18:01;;;;;;;45.80;26.73;;;;;;;5.15;44.96;99514.25;1800833;79;21166;-77
2021/01/15 04:20:29;;;;;;;38.85;23.52;;;;;;;5.17;44.96;99508.78;1769041;80;21194;-78
2021/01/15 04:22:56;;;;;;;41.98;22.67;;;;;;;5.21;44.98;99509.66;1800485;79;21181;-78
2021/01/15 04:25:25;;;;;;;52.50;29.45;;;;;;;5.23;44.94;99509.54;1768909;81;21182;-79
2021/01/15 04:27:53;;;;;;;68.70;36.63;;;;;;;5.25;44.86;99512.87;1793962;78;21613;-77
2021/01/15 04:30:22;;;;;;;56.20;31.20;;;;;;;5.26;44.87;99515.86;1737748;80;21225;-78
2021/01/15 04:32:50;;;;;;;63.70;35.45;;;;;;;5.27;44.85;99513.58;1769414;80;21181;-78
2021/01/15 04:35:18;;;;;;;50.20;28.92;;;;;;;5.29;44.78;99518.23;1804442;79;21153;-78
2021/01/15 04:37:47;;;;;;;47.65;29.00;;;;;;;5.30;44.70;99515.91;1770434;80;21158;-75
2021/01/15 04:40:15;;;;;;;62.48;31.40;;;;;;;5.30;44.70;99514.59;1798722;78;21788;-78
2021/01/15 04:42:45;;;;;;;57.60;30.65;;;;;;;5.28;44.68;99515.24;1737881;80;21049;-78
2021/01/15 04:45:15;;;;;;;58.85;30.62;;;;;;;5.25;44.73;99511.55;1808859;78;21407;-75
2021/01/15 04:47:45;;;;;;;65.95;34.33;;;;;;;5.25;44.75;99524.81;1820615;78;21184;-78
2021/01/15 04:50:17;;;;;;;61.65;32.00;;;;;;;5.25;44.86;99516.85;1820729;78;21209;-78
2021/01/15 04:52:51;;;;;;;62.30;32.90;;;;;;;5.26;44.86;99514.53;1816426;78;21369;-78
2021/01/15 04:55:24;;;;;;;73.37;36.10;;;;;;;5.27;44.91;99521.55;1773114;78;21182;-76
2021/01/15 04:57:54;;;;;;;81.02;38.15;;;;;;;5.29;44.95;99522.22;1751940;81;21678;-78
2021/01/15 05:00:26;;;;;;;81.20;38.10;;;;;;;5.31;45.12;99518.91;1776722;79;21182;-77
2021/01/15 05:02:54;;;;;;;100.78;47.88;;;;;;;5.32;45.20;99524.09;1736637;82;21176;-79
2021/01/15 05:05:24;;;;;;;98.85;42.03;;;;;;;5.32;45.36;99527.24;1769659;79;21699;-76
2021/01/15 05:08:16;;;;;;;97.30;43.60;;;;;;;5.31;45.35;99530.39;1800965;79;21166;-76
2021/01/15 05:10:48;;;;;;;97.67;43.08;;;;;;;5.31;45.31;99533.52;1800131;79;21604;-76
2021/01/15 05:13:16;;;;;;;95.65;40.55;;;;;;;5.26;45.44;99533.12;1769053;80;21427;-75
2021/01/15 05:15:49;;;;;;;98.85;47.62;;;;;;;5.26;45.60;99533.95;1776437;79;21262;-79
2021/01/15 05:18:18;;;;;;;114.65;62.27;;;;;;;5.27;45.66;99534.32;1794930;79;21353;-77
2021/01/15 05:20:47;;;;;;;90.15;46.30;;;;;;;5.32;45.62;99542.68;1775427;79;21133;-76
2021/01/15 05:23:15;;;;;;;85.22;39.78;;;;;;;5.35;45.64;99540.20;1768295;79;21265;-76
2021/01/15 05:25:47;;;;;;;65.20;27.70;;;;;;;5.36;45.64;99551.20;1768883;79;21199;-75
2021/01/15 05:28:18;;;;;;;60.48;25.40;;;;;;;5.37;45.59;99556.02;1765936;79;21154;-78
2021/01/15 05:30:57;;;;;;;46.75;22.32;;;;;;;5.35;45.54;99545.52;1766324;79;21381;-76
2021/01/15 05:33:27;;;;;;;42.15;21.12;;;;;;;5.36;45.54;99553.85;1773742;79;21201;-79
2021/01/15 05:35:55;;;;;;;40.60;22.48;;;;;;;5.37;45.61;99558.17;1764132;80;21526;-76
2021/01/15 05:38:23;;;;;;;35.35;20.35;;;;;;;5.38;45.58;99555.02;1767190;80;21196;-76
2021/01/15 05:40:58;;;;;;;34.20;21.33;;;;;;;5.38;45.61;99555.02;1763334;81;21670;-76
2021/01/15 05:43:30;;;;;;;33.55;20.30;;;;;;;5.37;45.65;99556.84;1789240;79;22319;-78
2021/01/15 05:46:20;;;;;;;41.53;23.80;;;;;;;5.37;45.67;99555.52;1783677;79;21153;-77
2021/01/15 05:48:58;;;;;;;38.00;22.25;;;;;;;5.37;45.64;99561.32;1787619;79;21121;-76
2021/01/15 05:51:28;;;;;;;44.55;24.82;;;;;;;5.33;45.76;99566.08;1755508;81;21098;-76
2021/01/15 05:54:00;;;;;;;36.20;22.32;;;;;;;5.34;45.77;99573.89;1765120;80;21170;-77
2021/01/15 05:56:40;;;;;;;49.50;33.73;;;;;;;5.35;45.74;99574.72;1758729;80;22079;-78
2021/01/15 05:59:17;;;;;;;45.33;31.17;;;;;;;5.36;45.74;99579.08;1786171;79;21181;-77
2021/01/15 06:01:50;;;;;;;53.53;39.30;;;;;;;5.36;45.82;99577.75;1776865;79;21161;-74
2021/01/15 06:04:20;;;;;;;58.75;42.78;;;;;;;5.37;45.84;99583.40;1749586;79;20986;-77
2021/01/15 06:06:48;;;;;;;52.08;38.55;;;;;;;5.38;45.76;99586.89;1777775;79;21699;-78
2021/01/15 06:09:20;;;;;;;46.48;30.77;;;;;;;5.38;45.82;99591.70;1754306;81;21696;-78
2021/01/15 06:11:50;;;;;;;38.10;25.05;;;;;;;5.37;45.89;99597.17;1748411;81;21218;-78
2021/01/15 06:14:26;;;;;;;37.85;21.82;;;;;;;5.37;45.82;99603.81;1790039;79;21146;-77
2021/01/15 06:17:05;;;;;;;25.82;17.67;;;;;;;5.38;45.88;99612.11;1768579;79;21176;-77
2021/01/15 06:20:03;;;;;;;34.48;16.35;;;;;;;5.37;45.58;99616.59;1734060;82;21114;-76
2021/01/15 06:22:44;;;;;;;28.67;16.47;;;;;;;5.34;44.98;99636.79;1762804;79;22096;-77
2021/01/15 06:25:30;;;;;;;23.65;12.98;;;;;;;5.19;44.59;99635.59;1773812;79;21152;-78
2021/01/15 06:28:03;;;;;;;26.25;14.95;;;;;;;5.10;44.51;99634.63;1780742;79;21644;-79
2021/01/15 06:30:32;;;;;;;23.75;12.53;;;;;;;5.05;44.35;99639.04;1756354;79;21142;-80
2021/01/15 06:33:15;;;;;;;25.50;14.15;;;;;;;4.97;44.16;99642.05;1784761;79;21164;-78
2021/01/15 06:35:44;;;;;;;25.68;13.00;;;;;;;4.91;44.20;99644.80;1766648;81;21363;-76
2021/01/15 06:38:18;;;;;;;22.85;11.85;;;;;;;4.83;44.20;99649.97;1757617;80;21149;-78
2021/01/15 06:40:48;;;;;;;23.77;12.88;;;;;;;4.78;44.44;99648.23;1766236;80;21118;-78
2021/01/15 06:43:35;;;;;;;21.37;11.53;;;;;;;4.74;44.41;99647.66;1799726;79;21133;-77
2021/01/15 06:46:04;;;;;;;19.95;11.35;;;;;;;4.68;44.25;99651.35;1738355;81;21115;-79
2021/01/15 06:48:38;;;;;;;21.02;11.68;;;;;;;4.56;44.15;99667.42;1769051;81;21201;-77
2021/01/15 06:51:07;;;;;;;21.93;12.73;;;;;;;4.47;44.19;99666.92;1759226;79;21122;-77
2021/01/15 06:53:41;;;;;;;22.13;12.15;;;;;;;4.39;44.31;99673.41;1780791;79;21124;-77
2021/01/15 06:56:18;;;;;;;22.02;12.73;;;;;;;4.38;44.47;99677.03;1747255;81;21113;-78
2021/01/15 06:58:46;;;;;;;20.10;11.78;;;;;;;4.37;44.55;99676.69;1772145;79;21080;-78
2021/01/15 07:01:41;;;;;;;22.40;11.43;;;;;;;4.35;44.59;99681.28;1721303;81;21478;-77
2021/01/15 07:04:28;;;;;;;18.80;11.50;;;;;;;4.35;44.74;99679.95;1785111;79;21618;-76
2021/01/15 07:07:14;;;;;;;16.45;10.60;;;;;;;4.39;44.82;99689.31;1761708;79;21146;-80
2021/01/15 07:09:45;;;;;;;20.25;11.75;;;;;;;4.43;44.76;99692.04;1761662;80;21082;-76
2021/01/15 07:12:20;;;;;;;18.07;10.98;;;;;;;4.47;44.72;99694.77;1752006;81;21123;-78
2021/01/15 07:14:58;;;;;;;18.55;11.28;;;;;;;4.49;44.63;99694.63;1759425;79;21341;-79
2021/01/15 07:17:32;;;;;;;17.62;10.50;;;;;;;4.54;44.43;99703.86;1773650;79;21469;-78
2021/01/15 07:20:14;;;;;;;20.80;10.43;;;;;;;4.52;44.22;99700.50;1764789;81;21589;-77
2021/01/15 07:22:53;;;;;;;21.95;12.40;;;;;;;4.50;43.95;99706.44;1763324;80;21125;-76
2021/01/15 07:25:24;;;;;;;17.80;11.25;;;;;;;4.46;43.83;99706.36;1798388;79;21086;-80
2021/01/15 07:27:55;;;;;;;20.30;11.55;;;;;;;4.45;43.64;99707.34;1753545;80;22351;-78
2021/01/15 07:30:28;;;;;;;19.65;11.75;;;;;;;4.43;43.46;99715.91;1768121;79;21126;-78
2021/01/15 07:32:58;;;;;;;19.60;12.00;;;;;;;4.42;43.24;99718.70;1764166;81;21190;-77
2021/01/15 07:35:29;;;;;;;20.27;11.90;;;;;;;4.37;43.12;99723.09;1766158;80;21177;-78
2021/01/15 07:38:13;;;;;;;21.15;11.65;;;;;;;4.37;43.14;99728.39;1759879;80;21561;-79
2021/01/15 07:40:42;;;;;;;17.17;10.80;;;;;;;4.33;43.00;99729.64;1750289;80;21202;-76
2021/01/15 07:46:15;;;;;;;19.15;11.60;;;;;;;4.36;43.06;99728.05;1798861;79;22765;-77
2021/01/15 07:48:46;;;;;;;22.85;12.47;;;;;;;4.36;43.12;99732.48;1755378;80;21653;-76
2021/01/15 07:51:14;;;;;;;22.62;12.82;;;;;;;4.36;43.14;99729.83;1765201;80;21268;-77
2021/01/15 07:53:44;;;;;;;21.23;11.83;;;;;;;4.37;43.20;99728.39;1759469;80;21817;-78
2021/01/15 07:56:12;;;;;;;23.45;12.85;;;;;;;4.40;43.18;99733.40;1765746;79;21467;-77
2021/01/15 07:58:47;;;;;;;21.45;13.20;;;;;;;4.43;43.09;99739.77;1765010;80;21161;-79
2021/01/15 08:01:17;;;;;;;23.10;12.85;;;;;;;4.41;42.91;99745.70;1764252;80;21178;-77
2021/01/15 08:03:49;;;;;;;21.45;12.75;;;;;;;4.42;42.98;99748.70;1794939;79;21636;-78
2021/01/15 08:06:18;;;;;;;23.87;12.60;;;;;;;4.44;43.00;99752.05;1761000;79;21590;-76
2021/01/15 08:09:07;;;;;;;25.37;15.10;;;;;;;4.47;42.91;99754.44;1769569;79;21200;-78
2021/01/15 08:11:37;;;;;;;23.95;13.40;;;;;;;4.51;42.82;99755.84;1774932;80;21524;-77
2021/01/15 08:14:16;;;;;;;24.65;14.53;;;;;;;4.49;42.52;99757.77;1760035;80;21243;-75
2021/01/15 08:16:45;;;;;;;22.40;13.28;;;;;;;4.47;42.61;99762.88;1805801;79;21806;-78
2021/01/15 08:19:20;;;;;;;25.68;15.08;;;;;;;4.46;42.74;99762.53;1764522;79;21212;-77
2021/01/15 08:21:50;;;;;;;26.17;13.55;;;;;;;4.46;42.86;99763.38;1775742;80;21174;-77
2021/01/15 08:24:19;;;;;;;26.15;15.38;;;;;;;4.48;42.93;99769.36;1760135;80;21722;-79
2021/01/15 08:26:58;;;;;;;19.75;12.70;;;;;;;4.49;42.86;99768.88;1797273;78;21173;-77
2021/01/15 08:29:29;;;;;;;22.45;12.50;;;;;;;4.48;42.93;99768.03;1739060;80;21217;-77
2021/01/15 08:32:00;;;;;;;26.45;13.25;;;;;;;4.49;43.05;99766.22;1790341;78;21197;-77
2021/01/15 08:34:34;;;;;;;20.62;12.55;;;;;;;4.52;42.99;99776.08;1794610;78;21200;-77
2021/01/15 08:37:07;;;;;;;23.53;13.20;;;;;;;4.52;42.87;99773.42;1782222;79;21169;-77
2021/01/15 08:39:55;;;;;;;22.95;13.22;;;;;;;4.53;43.00;99775.09;1764359;79;21173;-77
2021/01/15 08:42:25;;;;;;;25.23;15.00;;;;;;;4.53;42.71;99777.75;1804780;79;21472;-77
2021/01/15 08:44:53;;;;;;;25.82;14.55;;;;;;;4.48;43.03;99785.27;1794694;79;21679;-78
2021/01/15 08:47:24;;;;;;;23.57;13.62;;;;;;;4.45;43.04;99783.38;1769458;79;21212;-77
2021/01/15 08:49:57;;;;;;;25.97;14.33;;;;;;;4.40;43.01;99788.25;1782227;79;21373;-78
2021/01/15 08:52:29;;;;;;;28.05;15.48;;;;;;;4.38;43.12;99787.07;1791690;79;21215;-78
2021/01/15 08:54:59;;;;;;;23.30;13.65;;;;;;;4.38;43.22;99791.05;1768159;80;21204;-79
2021/01/15 08:57:29;;;;;;;25.82;14.07;;;;;;;4.41;43.25;99790.78;1753769;80;21844;-79
2021/01/15 09:00:14;;;;;;;20.48;12.23;;;;;;;4.43;43.30;99799.43;1752462;80;21220;-78
2021/01/15 09:02:43;;;;;;;16.20;10.20;;;;;;;4.47;42.82;99803.49;1768937;80;21154;-78
2021/01/15 09:05:22;;;;;;;17.05;10.78;;;;;;;4.43;42.70;99810.03;1792209;79;21556;-78
2021/01/15 09:07:56;;;;;;;20.77;12.57;;;;;;;4.29;42.35;99810.41;1747293;80;22140;-78
2021/01/15 09:10:31;;;;;;;16.25;10.30;;;;;;;4.24;42.14;99806.84;1738138;80;21225;-78
2021/01/15 09:13:05;;;;;;;17.25;10.48;;;;;;;4.21;42.21;99807.58;1797419;79;21802;-80
2021/01/15 09:15:35;;;;;;;19.60;12.53;;;;;;;4.23;42.37;99814.93;1766400;80;21186;-79
2021/01/15 09:18:12;;;;;;;19.02;11.95;;;;;;;4.26;42.42;99802.72;1734666;80;21613;-79
2021/01/15 09:20:41;;;;;;;17.05;10.58;;;;;;;4.30;42.38;99814.73;1749369;80;21159;-78
2021/01/15 09:23:16;;;;;;;16.55;10.45;;;;;;;4.29;42.30;99812.57;1760491;80;21504;-80
2021/01/15 09:26:12;;;;;;;16.55;9.85;;;;;;;4.32;42.50;99810.16;1777354;79;21222;-79
2021/01/15 09:28:46;;;;;;;18.15;10.50;;;;;;;4.36;42.45;99813.35;1741366;81;21098;-77
2021/01/15 09:31:15;;;;;;;17.67;10.95;;;;;;;4.39;42.43;99816.58;1773678;80;21181;-78
2021/01/15 09:33:48;;;;;;;17.35;11.15;;;;;;;4.39;42.38;99817.91;1779419;80;21173;-79
2021/01/15 09:36:24;;;;;;;16.42;10.93;;;;;;;4.42;42.22;99815.48;1778022;80;21208;-77
2021/01/15 09:38:56;;;;;;;16.85;10.38;;;;;;;4.45;41.99;99812.55;1762714;80;21230;-77
2021/01/15 09:41:26;;;;;;;20.45;11.90;;;;;;;4.42;41.99;99816.32;1767418;80;21185;-76
2021/01/15 09:43:54;;;;;;;21.25;11.75;;;;;;;4.40;42.08;99816.92;1773440;79;21408;-79
2021/01/15 09:46:27;;;;;;;20.02;12.55;;;;;;;4.40;41.90;99820.91;1771460;80;21377;-76
2021/01/15 09:48:57;;;;;;;18.60;11.18;;;;;;;4.38;41.97;99817.56;1765372;80;21192;-78
2021/01/15 09:51:27;;;;;;;16.87;10.15;;;;;;;4.38;41.95;99822.03;1770752;80;21161;-79
2021/01/15 09:53:56;;;;;;;24.70;13.00;;;;;;;4.37;42.05;99821.19;1790460;79;21669;-78
2021/01/15 09:56:33;;;;;;;18.55;9.70;;;;;;;4.36;42.08;99827.47;1761100;80;21126;-78
2021/01/15 09:59:02;;;;;;;;;;;;;;;4.36;42.15;99824.83;1774378;80;21380;-80
2021/01/15 10:01:30;;;;;;;20.57;12.58;;;;;;;4.37;42.12;99828.31;1769884;79;20942;-78
2021/01/15 10:03:59;;;;;;;17.20;10.72;;;;;;;4.33;41.99;99825.08;1778519;80;21616;-79
2021/01/15 10:06:27;;;;;;;23.73;12.60;;;;;;;4.30;41.56;99823.52;1768001;80;21178;-78
2021/01/15 10:08:57;;;;;;;21.77;12.40;;;;;;;4.30;41.58;99822.20;1757936;80;21819;-78
2021/01/15 10:11:28;;;;;;;22.52;12.25;;;;;;;4.32;41.68;99826.89;1790854;79;21330;-79
2021/01/15 10:13:58;;;;;;;16.25;9.43;;;;;;;4.32;41.53;99826.89;1756592;80;21212;-78
2021/01/15 10:16:26;;;;;;;17.37;10.30;;;;;;;4.36;41.17;99828.80;1793694;79;21107;-80
2021/01/15 10:18:55;;;;;;;20.57;9.78;;;;;;;4.38;40.79;99828.17;1772510;79;21129;-79
2021/01/15 10:21:28;;;;;;;14.38;8.65;;;;;;;4.42;40.68;99822.11;1777678;79;21112;-78
2021/01/15 10:23:57;;;;;;;13.70;8.63;;;;;;;4.45;40.52;99826.67;1759427;79;21357;-79
2021/01/15 10:26:30;;;;;;;21.20;12.30;;;;;;;4.45;40.23;99825.80;1769483;80;21219;-78
2021/01/15 10:29:06;;;;;;;14.40;9.55;;;;;;;4.44;40.02;99828.95;1769274;80;21074;-80
2021/01/15 10:31:52;;;;;;;14.90;8.25;;;;;;;4.45;40.04;99824.02;1772988;79;21070;-79
2021/01/15 10:34:22;;;;;;;13.35;8.35;;;;;;;4.45;39.99;99824.48;1781377;78;21098;-79
2021/01/15 10:36:51;;;;;;;14.68;8.25;;;;;;;4.44;39.94;99820.16;1775241;79;21374;-79
2021/01/15 10:39:20;;;;;;;13.05;7.80;;;;;;;4.42;39.97;99825.60;1778645;79;21128;-78
2021/01/15 10:41:52;;;;;;;15.20;8.58;;;;;;;4.40;39.86;99827.53;1778413;79;21172;-81
2021/01/15 10:44:21;;;;;;;13.25;8.10;;;;;;;4.44;39.92;99828.95;1752217;80;21058;-79
2021/01/15 10:46:52;;;;;;;15.78;8.23;;;;;;;4.48;39.84;99830.84;1772809;79;21798;-78
2021/01/15 10:49:23;;;;;;;12.25;7.60;;;;;;;4.48;39.88;99834.83;1766225;80;22075;-80
2021/01/15 10:51:55;;;;;;;11.12;7.37;;;;;;;4.47;40.06;99831.34;1772488;80;21232;-80
2021/01/15 10:54:24;;;;;;;14.73;7.90;;;;;;;4.47;39.94;99833.16;1763875;80;21192;-81
2021/01/15 10:56:53;;;;;;;13.55;8.35;;;;;;;4.48;40.29;99832.17;1746537;81;21196;-77
2021/01/15 10:59:22;;;;;;;15.98;8.03;;;;;;;4.49;40.37;99837.33;1774843;80;21365;-81
2021/01/15 11:01:51;;;;;;;14.23;8.00;;;;;;;4.52;40.10;99838.89;1768683;80;22421;-78
2021/01/15 11:04:21;;;;;;;13.28;8.65;;;;;;;4.52;40.26;99839.73;1778453;79;21847;-81
2021/01/15 11:06:55;;;;;;;15.18;9.25;;;;;;;4.55;40.25;99843.45;1770666;80;21676;-78
2021/01/15 11:09:24;;;;;;;11.63;8.20;;;;;;;4.58;40.20;99841.83;1771317;79;21229;-78
2021/01/15 11:11:56;;;;;;;20.97;11.50;;;;;;;4.61;39.81;99832.77;1762642;80;21229;-79
2021/01/15 11:14:25;;;;;;;13.65;9.43;;;;;;;4.63;39.71;99837.94;1785273;79;21358;-78
2021/01/15 11:16:56;;;;;;;15.93;10.43;;;;;;;4.65;39.70;99836.00;1785850;78;21195;-78
2021/01/15 11:19:25;;;;;;;16.67;9.60;;;;;;;4.68;39.96;99837.03;1788003;78;21228;-79
2021/01/15 11:21:53;;;;;;;16.87;11.18;;;;;;;4.69;39.89;99837.41;1773566;80;21785;-80
2021/01/15 11:24:22;;;;;;;16.67;9.78;;;;;;;4.68;39.70;99832.59;1764355;80;21229;-78
2021/01/15 11:26:55;;;;;;;17.45;10.78;;;;;;;4.67;39.65;99836.69;1763606;80;21533;-79
2021/01/15 11:29:24;;;;;;;16.75;10.08;;;;;;;4.63;39.84;99845.89;1794325;79;21189;-79
2021/01/15 11:31:52;;;;;;;24.05;11.28;;;;;;;4.61;39.65;99851.83;1788111;79;21188;-78
2021/01/15 11:34:22;;;;;;;16.05;9.30;;;;;;;4.56;39.79;99851.75;1785269;79;21185;-81
2021/01/15 11:36:50;;;;;;;18.98;10.38;;;;;;;4.51;39.74;99853.97;1755529;80;21425;-81
2021/01/15 11:39:19;;;;;;;14.00;8.93;;;;;;;4.50;39.40;99841.69;1789614;79;21195;-79
2021/01/15 11:41:54;;;;;;;16.97;8.45;;;;;;;4.48;38.99;99848.08;1797999;78;21117;-77
2021/01/15 11:44:23;;;;;;;18.57;10.82;;;;;;;4.45;38.92;99848.34;1802871;78;21129;-80
2021/01/15 11:46:52;;;;;;;19.07;9.75;;;;;;;4.44;38.84;99850.16;1775224;79;21128;-80
2021/01/15 11:49:22;;;;;;;18.55;10.65;;;;;;;4.44;38.91;99854.13;1776909;79;21483;-80
2021/01/15 11:51:55;;;;;;;20.12;10.13;;;;;;;4.42;38.62;99860.07;1772482;79;21607;-78
2021/01/15 11:54:28;;;;;;;18.42;9.90;;;;;;;4.39;38.63;99861.66;1772240;79;21151;-80